Time;durP1;ratioP1;P1;durP2;ratioP2;P2;SDS_P1;SDS_P2;PMS_P1;PMS_P2;Temp;Humidity;BMP_temperature;BMP_pressure;BME280_temperature;BME280_humidity;BME280_pressure;Samples;Min_cycle;Max_cycle;Signal;HPM_P1;HPM_P2
2022/05/11 00:02:28;;;;;;;11.60;10.47;;;17.10;99.90;;;;;;5064448;28;20394;-78
2022/05/11 00:05:14;;;;;;;12.80;8.43;;;17.10;99.90;;;;;;5077621;28;20398;-80
2022/05/11 00:07:59;;;;;;;10.00;9.00;;;17.10;99.90;;;;;;5043208;28;20442;-79
2022/05/11 00:10:48;;;;;;;12.17;9.53;;;17.10;99.90;;;;;;5059546;28;20390;-80
2022/05/11 00:13:33;;;;;;;9.73;8.70;;;17.10;99.90;;;;;;5053334;28;20406;-79
2022/05/11 00:16:19;;;;;;;9.83;8.93;;;17.10;99.90;;;;;;5043410;28;20378;-82
2022/05/11 00:19:04;;;;;;;11.73;10.20;;;17.10;99.90;;;;;;5049898;28;20379;-82
2022/05/11 00:21:48;;;;;;;10.60;9.50;;;17.10;99.90;;;;;;5049873;28;20402;-82
2022/05/11 00:24:33;;;;;;;9.10;8.30;;;17.10;99.90;;;;;;5048877;28;20929;-82
2022/05/11 00:27:18;;;;;;;9.97;8.77;;;17.10;99.90;;;;;;5049980;28;20391;-81
2022/05/11 00:30:05;;;;;;;11.60;9.97;;;17.20;99.90;;;;;;5049692;28;20383;-82
2022/05/11 00:32:54;;;;;;;13.40;11.00;;;17.10;99.90;;;;;;5048070;28;20529;-79
2022/05/11 00:35:39;;;;;;;14.60;10.27;;;17.20;99.90;;;;;;5048453;28;20402;-81
2022/05/11 00:38:26;;;;;;;9.57;8.67;;;17.10;99.90;;;;;;5019777;28;20838;-81
2022/05/11 00:41:11;;;;;;;10.33;9.23;;;17.10;99.90;;;;;;5049177;28;20442;-81
2022/05/11 00:44:00;;;;;;;9.37;8.03;;;17.00;99.90;;;;;;5020853;28;20387;-82
2022/05/11 00:46:57;;;;;;;15.57;11.87;;;16.90;99.90;;;;;;5049700;28;20387;-82
2022/05/11 00:49:49;;;;;;;9.80;8.90;;;16.90;99.90;;;;;;5048821;28;20391;-82
2022/05/11 00:52:46;;;;;;;12.97;10.03;;;16.80;99.90;;;;;;5033534;28;20470;-80
2022/05/11 00:55:33;;;;;;;12.77;10.53;;;16.70;99.90;;;;;;5034867;28;20428;-82
2022/05/11 00:58:26;;;;;;;9.57;8.77;;;16.80;99.90;;;;;;5048608;28;20461;-81
2022/05/11 01:01:13;;;;;;;10.20;9.20;;;16.90;99.90;;;;;;5034037;28;20592;-81
2022/05/11 01:04:09;;;;;;;10.73;9.30;;;16.80;99.90;;;;;;5049216;28;20399;-82
2022/05/11 01:06:57;;;;;;;9.87;8.90;;;16.70;99.90;;;;;;5037562;28;20449;-81
2022/05/11 01:09:45;;;;;;;10.60;8.87;;;16.60;99.90;;;;;;5068212;28;20413;-79
2022/05/11 01:12:35;;;;;;;13.43;10.03;;;16.50;99.90;;;;;;5066945;28;20524;-83
2022/05/11 01:15:20;;;;;;;10.43;9.30;;;16.50;99.90;;;;;;5051841;28;20407;-82
2022/05/11 01:18:07;;;;;;;10.27;9.37;;;16.40;99.90;;;;;;5072161;28;20438;-79
2022/05/11 01:20:52;;;;;;;11.00;10.00;;;16.50;99.90;;;;;;5070244;28;20613;-83
2022/05/11 01:23:52;;;;;;;9.50;8.70;;;16.40;99.90;;;;;;5065870;28;20517;-81
2022/05/11 01:26:36;;;;;;;14.07;12.30;;;16.30;99.90;;;;;;5066147;28;20460;-82
2022/05/11 01:29:21;;;;;;;16.20;10.23;;;16.40;99.90;;;;;;5051136;28;20402;-82
2022/05/11 01:32:06;;;;;;;10.67;9.60;;;16.40;99.90;;;;;;5065048;28;20405;-82
2022/05/11 01:34:58;;;;;;;10.93;9.87;;;16.40;99.90;;;;;;5065436;28;20532;-82
2022/05/11 01:37:52;;;;;;;16.37;10.30;;;16.40;99.90;;;;;;5066538;28;20397;-82
2022/05/11 01:40:37;;;;;;;12.00;10.33;;;16.30;99.90;;;;;;5066559;28;20480;-82
2022/05/11 01:43:25;;;;;;;11.17;9.80;;;16.40;99.90;;;;;;5067675;28;20458;-82
2022/05/11 01:46:11;;;;;;;11.20;10.07;;;16.30;99.90;;;;;;5067232;28;20393;-82
2022/05/11 01:48:56;;;;;;;12.10;10.67;;;16.30;99.90;;;;;;5025088;28;20439;-82
2022/05/11 01:51:41;;;;;;;10.90;9.80;;;16.30;99.90;;;;;;5025505;28;20416;-80
2022/05/11 01:54:27;;;;;;;11.83;9.73;;;16.20;99.90;;;;;;5025686;28;20384;-83
2022/05/11 01:57:11;;;;;;;17.80;11.30;;;16.20;99.90;;;;;;5026379;28;20446;-83
2022/05/11 01:59:56;;;;;;;10.67;9.73;;;16.30;99.90;;;;;;5025657;28;20451;-81
2022/05/11 02:02:40;;;;;;;11.43;9.90;;;16.20;99.90;;;;;;5025651;28;20415;-82
2022/05/11 02:08:29;;;;;;;12.20;9.97;;;16.30;99.90;;;;;;5024977;28;20435;-82
2022/05/11 02:11:15;;;;;;;12.07;10.37;;;16.30;99.90;;;;;;5025936;28;20496;-82
2022/05/11 02:13:59;;;;;;;17.23;11.20;;;16.30;99.90;;;;;;5025273;28;20459;-81
2022/05/11 02:16:44;;;;;;;12.10;10.97;;;16.20;99.90;;;;;;5028178;28;20407;-80
2022/05/11 02:19:30;;;;;;;11.60;10.37;;;16.20;99.90;;;;;;5031077;28;20405;-79
2022/05/11 02:22:14;;;;;;;12.23;10.07;;;16.10;99.90;;;;;;5053047;28;20405;-80
2022/05/11 02:24:59;;;;;;;10.37;9.27;;;16.20;99.90;;;;;;5068559;28;20414;-80
2022/05/11 02:27:46;;;;;;;11.53;10.13;;;16.10;99.90;;;;;;5069268;28;20401;-82
2022/05/11 02:30:30;;;;;;;13.50;10.00;;;16.10;99.90;;;;;;5073715;28;20470;-81
2022/05/11 02:33:15;;;;;;;11.33;10.20;;;16.10;99.90;;;;;;5060481;28;20382;-80
2022/05/11 02:36:00;;;;;;;16.87;10.80;;;16.20;99.90;;;;;;5046197;28;20440;-82
2022/05/11 02:38:46;;;;;;;11.43;10.23;;;16.10;99.90;;;;;;5073494;28;20421;-82
2022/05/11 02:41:30;;;;;;;13.13;11.80;;;16.20;99.90;;;;;;5071963;28;20577;-82
2022/05/11 02:44:18;;;;;;;11.67;10.53;;;16.00;99.90;;;;;;5074855;28;20397;-82
2022/05/11 02:47:03;;;;;;;12.70;11.40;;;16.00;99.90;;;;;;5033769;28;20466;-81
2022/05/11 02:49:47;;;;;;;17.87;12.37;;;16.10;99.90;;;;;;5032646;28;20391;-81
2022/05/11 02:52:33;;;;;;;11.43;10.43;;;16.20;99.90;;;;;;5005784;28;20395;-81
2022/05/11 02:55:18;;;;;;;20.20;11.63;;;16.30;99.90;;;;;;5034222;28;20554;-81
2022/05/11 02:58:03;;;;;;;12.03;10.83;;;16.30;99.90;;;;;;5033480;28;20457;-81
2022/05/11 03:00:50;;;;;;;12.60;11.40;;;16.30;99.90;;;;;;5018513;28;20498;-82
2022/05/11 03:03:35;;;;;;;13.57;10.27;;;16.30;99.90;;;;;;5030047;28;20411;-82
2022/05/11 03:06:20;;;;;;;12.20;9.70;;;16.30;99.90;;;;;;5032789;28;20556;-81
2022/05/11 03:09:04;;;;;;;11.37;10.27;;;16.20;99.90;;;;;;5033331;28;20480;-80
2022/05/11 03:11:49;;;;;;;10.33;9.43;;;16.20;99.90;;;;;;5033758;28;20412;-79
2022/05/11 03:14:33;;;;;;;11.87;10.60;;;16.10;99.90;;;;;;5033920;28;20400;-79
2022/05/11 03:17:18;;;;;;;12.13;10.93;;;16.20;99.90;;;;;;5046379;28;20425;-81
2022/05/11 03:20:05;;;;;;;17.80;10.60;;;16.20;99.90;;;;;;5073780;28;20464;-79
2022/05/11 03:22:50;;;;;;;12.90;11.43;;;16.10;99.90;;;;;;5073681;28;20398;-82
2022/05/11 03:25:34;;;;;;;12.17;10.87;;;16.10;99.90;;;;;;5075049;28;20486;-80
2022/05/11 03:28:19;;;;;;;15.50;11.20;;;16.10;99.90;;;;;;5071375;28;20799;-82
2022/05/11 03:31:04;;;;;;;12.40;11.20;;;16.10;99.90;;;;;;5055969;28;20382;-81
2022/05/11 03:36:52;;;;;;;14.17;12.47;;;16.10;99.90;;;;;;5070445;28;20394;-82
2022/05/11 03:39:37;;;;;;;17.20;12.20;;;16.00;99.90;;;;;;5053800;28;20394;-82
2022/05/11 03:42:28;;;;;;;13.00;11.00;;;16.00;99.90;;;;;;5054774;28;20462;-82
2022/05/11 03:45:16;;;;;;;18.10;12.03;;;16.00;99.90;;;;;;5069113;28;20378;-82
2022/05/11 03:48:01;;;;;;;11.60;10.40;;;16.10;99.90;;;;;;5061885;28;20763;-81
2022/05/11 03:50:45;;;;;;;11.67;10.50;;;16.00;99.90;;;;;;5049448;28;20382;-82
2022/05/11 03:53:32;;;;;;;13.03;9.80;;;16.00;99.90;;;;;;5052742;28;20413;-81
2022/05/11 03:56:18;;;;;;;13.93;11.30;;;16.10;99.90;;;;;;5068483;28;20425;-82
2022/05/11 03:59:03;;;;;;;12.20;10.87;;;15.90;99.90;;;;;;5067926;28;20385;-82
2022/05/11 04:01:48;;;;;;;16.17;11.77;;;16.00;99.90;;;;;;5068211;28;20453;-81
2022/05/11 04:04:33;;;;;;;12.97;11.77;;;16.10;99.90;;;;;;5068952;28;20480;-82
2022/05/11 04:07:17;;;;;;;17.40;11.90;;;16.10;99.90;;;;;;5087667;28;20448;-82
2022/05/11 04:10:03;;;;;;;14.33;12.83;;;16.20;99.90;;;;;;5072326;28;20388;-82
2022/05/11 04:12:48;;;;;;;14.37;12.20;;;16.10;99.90;;;;;;5073240;28;20435;-82
2022/05/11 04:15:32;;;;;;;14.13;11.33;;;16.10;99.90;;;;;;5073016;28;20384;-81
2022/05/11 04:18:17;;;;;;;20.67;12.27;;;16.10;99.90;;;;;;5088332;28;20380;-81
2022/05/11 04:21:03;;;;;;;12.87;11.57;;;16.10;99.90;;;;;;5088042;28;20488;-82
2022/05/11 04:23:47;;;;;;;17.40;12.80;;;16.10;99.90;;;;;;5087289;28;20462;-79
2022/05/11 04:26:32;;;;;;;15.07;13.00;;;16.10;99.90;;;;;;5072601;28;20389;-81
2022/05/11 04:29:17;;;;;;;14.10;11.73;;;16.30;99.90;;;;;;5088678;28;20408;-83
2022/05/11 04:32:01;;;;;;;14.73;11.93;;;16.40;99.90;;;;;;5073914;28;20389;-82
2022/05/11 04:34:47;;;;;;;14.20;12.80;;;16.40;99.90;;;;;;5074881;28;20377;-82
2022/05/11 04:37:32;;;;;;;14.60;11.30;;;16.20;99.90;;;;;;5088961;28;20516;-82
2022/05/11 04:40:16;;;;;;;15.33;12.57;;;16.10;99.90;;;;;;5089305;28;20805;-82
2022/05/11 04:43:15;;;;;;;15.03;13.37;;;16.20;99.90;;;;;;5093421;28;20436;-83
2022/05/11 04:45:59;;;;;;;13.60;12.30;;;16.20;99.90;;;;;;5080641;28;20397;-82
2022/05/11 04:48:45;;;;;;;14.83;13.43;;;16.20;99.90;;;;;;5093724;28;20411;-82
2022/05/11 04:51:30;;;;;;;16.40;12.07;;;16.30;99.90;;;;;;5058288;28;20459;-80
2022/05/11 04:54:15;;;;;;;16.43;13.83;;;16.40;99.90;;;;;;5077285;28;20394;-81
2022/05/11 04:57:00;;;;;;;14.73;13.13;;;16.40;99.90;;;;;;5079352;28;20467;-79
2022/05/11 04:59:46;;;;;;;13.57;12.17;;;16.40;99.90;;;;;;5094073;28;20388;-79
2022/05/11 05:02:31;;;;;;;15.17;13.13;;;16.20;99.90;;;;;;5075617;28;20417;-81
2022/05/11 05:05:17;;;;;;;13.73;12.43;;;16.30;99.90;;;;;;5091254;28;20434;-79
2022/05/11 05:08:02;;;;;;;14.73;13.23;;;16.20;99.90;;;;;;5091889;28;20449;-78
2022/05/11 05:10:46;;;;;;;17.77;12.40;;;16.20;99.90;;;;;;5068768;28;20429;-78
2022/05/11 05:13:31;;;;;;;12.03;10.80;;;16.40;99.90;;;;;;5052990;28;20848;-80
2022/05/11 05:16:16;;;;;;;15.00;13.23;;;16.60;99.90;;;;;;5047257;28;20442;-81
2022/05/11 05:19:01;;;;;;;16.93;12.40;;;16.80;99.90;;;;;;5066459;28;20517;-79
2022/05/11 05:21:45;;;;;;;15.10;13.10;;;16.90;99.90;;;;;;5065507;28;20489;-79
2022/05/11 05:24:32;;;;;;;18.90;13.13;;;16.90;99.90;;;;;;5044012;28;20490;-79
2022/05/11 05:27:18;;;;;;;14.90;12.80;;;17.00;99.90;;;;;;5066053;28;20430;-82
2022/05/11 05:32:58;;;;;;;16.40;12.50;;;17.30;99.90;;;;;;5058955;28;20453;-82
2022/05/11 05:35:43;;;;;;;21.40;13.20;;;17.30;99.90;;;;;;5072797;28;20433;-80
2022/05/11 05:38:31;;;;;;;15.30;13.90;;;17.40;99.90;;;;;;5029873;28;20509;-83
2022/05/11 05:41:16;;;;;;;13.53;11.97;;;17.60;99.90;;;;;;5056094;28;20536;-83
2022/05/11 05:44:00;;;;;;;17.77;12.73;;;17.70;99.90;;;;;;5068058;28;20425;-84
2022/05/11 05:46:45;;;;;;;14.17;12.77;;;17.90;99.90;;;;;;5069098;28;21000;-82
2022/05/11 05:49:30;;;;;;;16.67;12.07;;;18.00;99.90;;;;;;5051592;28;20481;-84
2022/05/11 05:52:19;;;;;;;15.10;11.13;;;18.10;99.90;;;;;;5054455;28;20943;-83
2022/05/11 05:55:04;;;;;;;13.50;12.20;;;18.10;99.90;;;;;;5049689;28;20488;-79
2022/05/11 05:57:49;;;;;;;12.50;11.03;;;18.20;99.90;;;;;;5058333;28;20457;-83
2022/05/11 06:00:34;;;;;;;13.30;12.00;;;18.40;99.90;;;;;;5057651;28;20538;-81
2022/05/11 06:03:22;;;;;;;19.30;12.37;;;18.50;99.90;;;;;;5048508;28;20474;-83
2022/05/11 06:06:08;;;;;;;14.10;11.90;;;18.60;99.90;;;;;;5066206;28;20481;-83
2022/05/11 06:08:53;;;;;;;14.23;12.40;;;18.60;99.90;;;;;;5063148;28;20484;-81
2022/05/11 06:11:38;;;;;;;12.87;11.40;;;18.60;99.90;;;;;;5059873;28;20441;-83
2022/05/11 06:14:22;;;;;;;13.70;11.80;;;18.60;99.90;;;;;;5031458;28;20433;-80
2022/05/11 06:17:20;;;;;;;14.07;10.40;;;18.80;99.90;;;;;;5054975;28;20432;-82
2022/05/11 06:20:08;;;;;;;12.30;11.10;;;18.60;99.90;;;;;;5051939;28;20978;-83
2022/05/11 06:22:53;;;;;;;11.30;9.87;;;18.80;99.90;;;;;;5040149;28;20470;-83
2022/05/11 06:25:39;;;;;;;12.63;11.17;;;18.90;99.90;;;;;;5050235;28;20435;-83
2022/05/11 06:28:23;;;;;;;14.47;11.07;;;18.90;99.90;;;;;;5051290;28;20472;-82
2022/05/11 06:31:09;;;;;;;12.10;10.90;;;18.80;99.90;;;;;;5049234;28;20452;-84
2022/05/11 06:33:55;;;;;;;12.50;10.00;;;18.90;99.90;;;;;;5025025;28;20438;-81
2022/05/11 06:36:43;;;;;;;10.93;9.90;;;18.90;99.90;;;;;;5019312;28;20450;-83
2022/05/11 06:39:27;;;;;;;10.97;9.57;;;18.90;99.90;;;;;;5019047;28;20434;-82
2022/05/11 06:42:13;;;;;;;10.60;9.50;;;19.00;99.90;;;;;;5039248;28;20473;-83
2022/05/11 06:44:59;;;;;;;14.23;10.10;;;19.20;99.90;;;;;;5034885;28;20430;-82
2022/05/11 06:47:43;;;;;;;10.83;9.83;;;19.20;99.90;;;;;;5022922;28;20573;-82
2022/05/11 06:50:28;;;;;;;14.10;11.97;;;19.20;99.90;;;;;;5032479;28;20453;-83
2022/05/11 06:53:14;;;;;;;11.83;10.63;;;19.30;99.90;;;;;;5036357;28;20434;-83
2022/05/11 07:01:57;;;;;;;16.10;11.03;;;19.60;99.90;;;;;;5034236;28;20474;-82
2022/05/11 07:04:41;;;;;;;11.90;10.90;;;19.70;99.90;;;;;;5042233;28;20433;-81
2022/05/11 07:07:26;;;;;;;12.20;10.40;;;19.70;99.90;;;;;;5029262;28;20465;-84
2022/05/11 07:10:11;;;;;;;11.00;10.00;;;19.80;99.90;;;;;;5056410;28;20432;-81
2022/05/11 07:12:56;;;;;;;11.80;9.07;;;19.70;99.90;;;;;;5039599;28;20520;-82
2022/05/11 07:15:41;;;;;;;11.57;10.00;;;19.80;99.90;;;;;;5044339;28;20503;-83
2022/05/11 07:18:26;;;;;;;9.93;9.07;;;20.00;99.90;;;;;;5048614;28;20471;-81
2022/05/11 07:21:11;;;;;;;10.73;9.65;;;20.10;99.90;;;;;;5049251;28;20481;-82
2022/05/11 07:23:55;;;;;;;11.93;10.67;;;20.20;99.90;;;;;;5044579;28;20179;-82
2022/05/11 07:26:41;;;;;;;10.23;9.33;;;20.30;99.90;;;;;;5045049;28;20507;-82
2022/05/11 07:29:26;;;;;;;11.97;10.73;;;20.40;99.90;;;;;;5043371;28;20515;-82
2022/05/11 07:32:11;;;;;;;10.47;9.47;;;20.50;99.90;;;;;;5051954;28;20487;-82
2022/05/11 07:34:56;;;;;;;10.33;9.20;;;20.70;99.90;;;;;;5042231;28;20457;-82
2022/05/11 07:37:40;;;;;;;9.10;8.20;;;20.70;99.90;;;;;;5056771;28;20511;-82
2022/05/11 07:40:25;;;;;;;10.00;9.10;;;20.80;99.90;;;;;;5046013;28;20963;-83
2022/05/11 07:43:13;;;;;;;9.70;8.57;;;20.90;99.90;;;;;;5056422;28;20445;-81
2022/05/11 07:45:58;;;;;;;9.20;7.90;;;21.00;99.90;;;;;;5039471;28;20517;-81
2022/05/11 07:48:42;;;;;;;10.63;9.60;;;21.20;99.90;;;;;;5051512;28;20783;-82
2022/05/11 07:51:31;;;;;;;9.97;7.30;;;21.30;99.90;;;;;;5050241;28;20487;-80
2022/05/11 07:54:16;;;;;;;10.80;7.50;;;21.40;99.90;;;;;;5023505;28;20530;-82
2022/05/11 08:00:06;;;;;;;8.10;5.90;;;21.60;99.90;;;;;;5051439;28;20493;-80
2022/05/11 08:02:51;;;;;;;6.47;5.97;;;21.70;99.90;;;;;;5026757;28;20856;-83
2022/05/11 08:05:37;;;;;;;7.23;5.90;;;21.80;99.90;;;;;;5021734;28;20461;-82
2022/05/11 08:08:22;;;;;;;6.20;5.60;;;22.00;99.90;;;;;;5032087;28;20438;-81
2022/05/11 08:11:07;;;;;;;6.67;5.87;;;22.20;99.90;;;;;;5050293;28;20810;-83
2022/05/11 08:13:51;;;;;;;4.90;4.50;;;22.20;99.90;;;;;;5043937;28;20587;-83
2022/05/11 08:16:37;;;;;;;8.00;6.00;;;22.30;99.90;;;;;;5048457;28;20567;-82
2022/05/11 08:19:23;;;;;;;7.73;4.90;;;22.40;99.90;;;;;;5048960;28;20442;-82
2022/05/11 08:22:08;;;;;;;5.70;4.50;;;22.60;99.90;;;;;;5033719;28;20519;-82
2022/05/11 08:24:54;;;;;;;6.00;5.37;;;22.60;99.90;;;;;;5038401;28;20520;-82
2022/05/11 08:27:39;;;;;;;5.57;5.07;;;22.70;99.90;;;;;;5058464;28;20473;-83
2022/05/11 08:33:27;;;;;;;8.77;4.87;;;22.80;99.90;;;;;;5048408;28;20425;-80
2022/05/11 08:36:16;;;;;;;6.23;5.63;;;23.00;99.90;;;;;;5014752;28;20522;-81
2022/05/11 08:39:01;;;;;;;5.43;5.03;;;23.00;99.90;;;;;;5056745;28;20429;-79
2022/05/11 08:41:51;;;;;;;7.63;5.73;;;23.10;99.90;;;;;;5039135;28;20580;-82
2022/05/11 08:44:41;;;;;;;5.00;4.50;;;23.30;99.90;;;;;;5042862;28;20518;-80
2022/05/11 08:47:44;;;;;;;5.70;5.30;;;23.20;99.90;;;;;;5025437;28;21130;-80
2022/05/11 08:50:30;;;;;;;5.00;4.60;;;23.30;99.90;;;;;;5045250;28;20512;-82
2022/05/11 08:53:39;;;;;;;5.87;5.37;;;23.30;99.90;;;;;;5041748;28;20917;-79
2022/05/11 08:56:28;;;;;;;5.70;5.20;;;23.50;99.90;;;;;;5047154;28;20460;-83
2022/05/11 08:59:23;;;;;;;4.80;4.50;;;23.50;99.90;;;;;;5046329;28;20449;-81
2022/05/11 09:02:35;;;;;;;6.03;5.43;;;23.50;99.90;;;;;;5039769;28;21010;-81
2022/05/11 09:05:27;;;;;;;6.20;4.40;;;23.50;99.90;;;;;;5056244;28;20425;-83
2022/05/11 09:08:14;;;;;;;5.57;5.10;;;23.70;99.90;;;;;;5055246;28;20952;-81
2022/05/11 09:10:58;;;;;;;7.03;4.53;;;23.80;99.90;;;;;;5049864;28;20469;-82
2022/05/11 09:13:44;;;;;;;4.93;4.53;;;23.90;99.90;;;;;;5037866;28;20434;-82
2022/05/11 09:16:54;;;;;;;4.30;3.90;;;23.90;99.90;;;;;;5048934;28;20425;-80
2022/05/11 09:19:42;;;;;;;4.53;3.87;;;24.10;99.90;;;;;;5025253;28;20446;-80
2022/05/11 09:22:29;;;;;;;4.37;3.47;;;24.10;99.90;;;;;;5001237;28;20854;-79
2022/05/11 09:25:22;;;;;;;5.00;4.33;;;24.10;99.90;;;;;;5045915;28;20973;-80
2022/05/11 09:28:21;;;;;;;3.83;3.53;;;24.30;99.90;;;;;;5033358;28;20458;-82
2022/05/11 09:31:12;;;;;;;5.27;3.90;;;24.40;99.90;;;;;;5041819;28;20449;-81
2022/05/11 09:34:03;;;;;;;3.87;3.57;;;24.50;99.90;;;;;;5052861;28;20490;-81
2022/05/11 09:37:01;;;;;;;4.43;3.80;;;24.50;99.90;;;;;;5036470;28;20463;-82
2022/05/11 09:40:03;;;;;;;4.50;4.20;;;24.50;99.90;;;;;;5054501;28;20435;-82
2022/05/11 09:42:55;;;;;;;3.90;3.70;;;24.50;99.90;;;;;;5048876;28;20422;-81
2022/05/11 09:45:49;;;;;;;3.27;3.07;;;24.70;99.90;;;;;;5036427;28;20456;-83
2022/05/11 09:48:37;;;;;;;4.50;4.10;;;24.80;99.90;;;;;;5051972;28;20425;-81
2022/05/11 09:51:26;;;;;;;3.53;3.13;;;24.90;99.90;;;;;;5045142;28;20441;-81
2022/05/11 09:54:28;;;;;;;4.07;3.77;;;24.70;99.90;;;;;;5045451;28;20942;-80
2022/05/11 09:57:23;;;;;;;4.23;3.70;;;24.80;99.90;;;;;;5059530;28;20494;-79
2022/05/11 10:00:33;;;;;;;4.23;3.93;;;25.10;99.90;;;;;;5044821;28;20464;-82
2022/05/11 10:03:30;;;;;;;4.10;3.60;;;25.20;99.90;;;;;;5029795;28;20479;-80
2022/05/11 10:06:18;;;;;;;3.63;3.30;;;25.30;99.60;;;;;;4985454;28;20468;-82
2022/05/11 10:09:04;;;;;;;3.43;3.13;;;25.50;99.50;;;;;;5034902;28;20434;-81
2022/05/11 10:11:50;;;;;;;4.53;3.77;;;25.20;99.80;;;;;;5034129;28;20442;-81
2022/05/11 10:24:13;;;;;;;5.20;3.97;;;25.70;95.70;;;;;;5012963;28;20469;-82
2022/05/11 10:27:17;;;;;;;4.10;3.70;;;25.60;95.30;;;;;;5002302;28;20447;-82
2022/05/11 10:30:25;;;;;;;3.47;3.27;;;25.70;95.00;;;;;;5010339;28;20441;-82
2022/05/11 10:33:27;;;;;;;3.97;3.67;;;25.80;94.70;;;;;;5024485;28;20430;-79
2022/05/11 10:36:34;;;;;;;8.70;4.50;;;25.90;94.60;;;;;;5018046;28;20482;-82
2022/05/11 10:39:36;;;;;;;3.70;3.43;;;25.90;93.90;;;;;;5003185;28;20483;-82
2022/05/11 10:42:33;;;;;;;3.20;3.00;;;26.30;92.90;;;;;;4995185;28;20490;-82
2022/05/11 10:45:27;;;;;;;4.03;3.53;;;26.30;93.30;;;;;;5026108;28;20824;-80
2022/05/11 10:48:37;;;;;;;6.23;4.37;;;26.60;91.30;;;;;;5029834;28;20458;-82
2022/05/11 10:52:00;;;;;;;3.37;3.17;;;26.00;90.70;;;;;;5028627;28;20554;-80
2022/05/11 10:55:03;;;;;;;3.83;3.23;;;26.20;90.70;;;;;;4997234;28;20521;-82
2022/05/11 10:58:08;;;;;;;4.90;4.50;;;26.40;91.30;;;;;;5005138;28;20458;-82
2022/05/11 11:01:04;;;;;;;3.57;3.27;;;26.60;91.60;;;;;;5005735;28;20581;-82
2022/05/11 11:04:17;;;;;;;4.43;3.97;;;26.70;90.60;;;;;;4997088;28;21008;-80
2022/05/11 11:07:26;;;;;;;6.17;4.07;;;26.70;88.70;;;;;;4999026;28;20930;-81
2022/05/11 11:10:31;;;;;;;7.77;3.53;;;27.00;87.80;;;;;;5005363;28;20519;-82
2022/05/11 11:13:37;;;;;;;14.53;4.23;;;26.50;88.70;;;;;;5010986;28;20427;-81
2022/05/11 11:16:26;;;;;;;3.83;3.53;;;26.50;90.30;;;;;;5010632;28;21314;-79
2022/05/11 11:19:14;;;;;;;3.70;3.40;;;26.30;91.70;;;;;;5020224;28;20455;-81
2022/05/11 11:22:01;;;;;;;3.63;3.33;;;26.90;90.30;;;;;;5008491;28;20462;-80
2022/05/11 11:25:19;;;;;;;4.47;3.77;;;27.00;89.60;;;;;;5011628;28;20430;-82
2022/05/11 11:28:09;;;;;;;3.20;2.90;;;26.80;88.60;;;;;;5018602;28;20486;-80
2022/05/11 11:31:16;;;;;;;3.50;3.30;;;26.70;90.40;;;;;;5012050;28;20450;-81
2022/05/11 11:34:13;;;;;;;5.53;3.47;;;27.30;89.40;;;;;;5002597;28;20442;-79
2022/05/11 11:37:00;;;;;;;5.60;4.37;;;27.40;88.30;;;;;;5015150;28;20522;-82
2022/05/11 11:39:55;;;;;;;3.73;3.43;;;27.60;84.90;;;;;;5022902;28;20510;-82
2022/05/11 11:42:45;;;;;;;3.87;3.57;;;27.70;82.60;;;;;;5058939;28;20917;-82
2022/05/11 11:45:59;;;;;;;3.90;3.60;;;27.20;84.20;;;;;;5016535;28;20426;-81
2022/05/11 11:48:45;;;;;;;3.43;3.13;;;27.50;84.20;;;;;;5030109;28;20797;-82
2022/05/11 11:51:51;;;;;;;4.10;3.80;;;27.30;84.10;;;;;;5031397;28;20492;-81
2022/05/11 11:54:49;;;;;;;3.80;3.50;;;28.00;83.50;;;;;;5036875;28;20581;-82
2022/05/11 11:57:43;;;;;;;3.40;3.20;;;28.40;80.00;;;;;;5040757;28;20471;-82
2022/05/11 12:01:03;;;;;;;3.97;3.57;;;29.20;77.50;;;;;;5028184;28;20519;-84
2022/05/11 12:04:00;;;;;;;3.57;3.03;;;29.70;72.70;;;;;;5054125;28;20781;-84
2022/05/11 12:16:05;;;;;;;7.40;3.43;;;30.10;68.50;;;;;;5052508;28;20190;-82
2022/05/11 12:18:53;;;;;;;3.37;3.07;;;28.80;68.60;;;;;;5054458;28;20194;-81
2022/05/11 12:21:41;;;;;;;4.13;3.63;;;28.80;70.90;;;;;;5036327;28;20485;-80
2022/05/11 12:24:31;;;;;;;3.50;3.20;;;28.10;73.80;;;;;;5055977;28;20409;-80
2022/05/11 12:27:27;;;;;;;3.60;3.40;;;28.80;72.00;;;;;;5059378;28;20449;-81
2022/05/11 12:30:32;;;;;;;4.63;4.10;;;29.40;69.70;;;;;;5069116;28;20417;-82
2022/05/11 12:33:35;;;;;;;5.72;3.25;;;30.20;71.40;;;;;;5057907;28;20445;-82
2022/05/11 12:36:34;;;;;;;3.88;3.67;;;31.30;65.30;;;;;;5042638;28;20194;-82
2022/05/11 12:39:36;;;;;;;4.20;3.90;;;29.60;65.30;;;;;;5047410;28;20222;-82
2022/05/11 12:42:30;;;;;;;3.50;3.20;;;30.60;64.00;;;;;;5040251;28;20205;-82
2022/05/11 12:45:23;;;;;;;4.20;3.85;;;30.60;64.00;;;;;;5054537;28;20740;-82
2022/05/11 12:48:09;;;;;;;4.17;3.87;;;30.10;65.10;;;;;;5040661;28;20182;-82
2022/05/11 12:51:15;;;;;;;3.23;3.03;;;28.60;68.50;;;;;;5011739;28;20185;-80
2022/05/11 12:54:02;;;;;;;4.17;3.97;;;28.70;70.50;;;;;;5043690;28;20438;-80
2022/05/11 12:56:58;;;;;;;4.43;4.03;;;28.70;69.20;;;;;;5057085;28;20468;-83
2022/05/11 12:59:57;;;;;;;4.53;3.43;;;28.30;69.20;;;;;;5048464;28;20448;-81
2022/05/11 13:02:51;;;;;;;4.13;3.63;;;29.50;69.00;;;;;;5049305;28;20433;-81
2022/05/11 13:05:35;;;;;;;4.20;3.90;;;30.30;63.90;;;;;;5025178;28;20512;-82
2022/05/11 13:08:22;;;;;;;3.30;3.00;;;30.60;62.60;;;;;;5039387;28;20186;-82
2022/05/11 13:11:09;;;;;;;4.37;3.80;;;30.10;62.20;;;;;;5026020;28;20206;-82
2022/05/11 13:13:58;;;;;;;4.70;3.17;;;29.60;64.80;;;;;;5005516;28;20195;-81
2022/05/11 13:16:53;;;;;;;6.00;5.38;;;30.30;66.30;;;;;;5008066;28;20267;-81
2022/05/11 13:19:40;;;;;;;4.28;3.88;;;31.50;62.10;;;;;;4998811;28;20611;-81
2022/05/11 13:22:28;;;;;;;3.45;3.20;;;30.60;61.30;;;;;;4963894;28;20300;-80
2022/05/11 13:25:52;;;;;;;3.50;3.30;;;30.70;61.50;;;;;;4953733;28;20228;-82
2022/05/11 13:28:42;;;;;;;3.53;3.33;;;31.30;60.20;;;;;;4992715;28;20596;-82
2022/05/11 13:31:31;;;;;;;5.03;3.75;;;31.40;58.10;;;;;;4989138;28;20306;-82
2022/05/11 13:34:34;;;;;;;7.78;3.55;;;29.90;62.80;;;;;;4949620;28;20215;-81
2022/05/11 13:37:29;;;;;;;3.65;3.35;;;29.70;60.90;;;;;;4993499;28;20224;-82
2022/05/11 13:40:26;;;;;;;5.60;3.85;;;30.80;59.50;;;;;;4954977;28;20305;-80
2022/05/11 13:43:22;;;;;;;4.40;4.00;;;31.50;58.20;;;;;;4973539;28;20791;-83
2022/05/11 13:46:13;;;;;;;3.85;3.47;;;30.80;57.50;;;;;;5002918;28;20241;-80
2022/05/11 13:49:15;;;;;;;3.75;3.47;;;30.70;59.80;;;;;;4965854;28;20200;-82
2022/05/11 13:52:04;;;;;;;4.43;3.70;;;30.70;58.70;;;;;;4999254;28;20251;-83
2022/05/11 13:54:53;;;;;;;4.35;4.05;;;30.20;60.00;;;;;;4998649;28;20607;-84
2022/05/11 13:57:39;;;;;;;4.57;3.40;;;29.80;60.70;;;;;;5025407;28;20218;-84
2022/05/11 14:00:37;;;;;;;4.03;3.77;;;30.40;61.60;;;;;;5026825;28;20211;-80
2022/05/11 14:03:27;;;;;;;4.87;4.37;;;30.60;60.10;;;;;;4999384;28;20195;-79
2022/05/11 14:06:16;;;;;;;3.95;3.65;;;30.10;59.90;;;;;;4971358;28;20429;-81
2022/05/11 14:09:10;;;;;;;4.47;4.07;;;30.30;59.70;;;;;;5006019;28;20228;-83
2022/05/11 14:11:59;;;;;;;4.10;3.70;;;29.90;60.90;;;;;;5000392;28;20223;-84
2022/05/11 14:14:53;;;;;;;13.27;4.13;;;29.70;61.10;;;;;;5043060;28;20465;-82
2022/05/11 14:17:44;;;;;;;4.00;3.70;;;30.20;60.80;;;;;;5036518;28;20194;-81
2022/05/11 14:20:33;;;;;;;4.57;3.97;;;29.30;62.10;;;;;;5026443;28;20457;-82
2022/05/11 14:23:22;;;;;;;3.90;3.60;;;29.50;62.40;;;;;;5011730;28;20489;-82
2022/05/11 14:26:07;;;;;;;3.90;3.60;;;29.80;61.90;;;;;;5019024;28;20430;-83
2022/05/11 14:28:52;;;;;;;4.40;4.00;;;29.40;62.40;;;;;;5016760;28;20425;-82
2022/05/11 14:31:37;;;;;;;6.70;3.67;;;29.10;62.30;;;;;;5040062;28;20456;-81
2022/05/11 14:34:29;;;;;;;3.90;3.70;;;29.10;63.10;;;;;;5043735;28;20429;-81
2022/05/11 14:37:25;;;;;;;4.10;3.90;;;29.40;62.40;;;;;;5031097;28;20436;-80
2022/05/11 14:40:16;;;;;;;3.53;3.23;;;29.30;63.30;;;;;;5025574;28;20488;-81
2022/05/11 14:43:02;;;;;;;4.07;3.77;;;29.00;62.50;;;;;;4986687;28;20482;-81
2022/05/11 14:45:54;;;;;;;4.20;3.90;;;29.50;62.40;;;;;;4981609;28;20582;-82
2022/05/11 14:48:44;;;;;;;8.33;4.37;;;29.80;62.00;;;;;;4987953;28;20461;-81
2022/05/11 14:51:30;;;;;;;8.73;5.53;;;30.00;63.80;;;;;;5001603;28;20859;-83
2022/05/11 14:54:15;;;;;;;9.10;4.17;;;30.20;61.20;;;;;;4970982;28;20416;-81
2022/05/11 15:03:00;;;;;;;4.27;3.97;;;30.20;61.00;;;;;;4987441;28;20483;-82
2022/05/11 15:05:45;;;;;;;6.17;5.40;;;29.60;62.40;;;;;;5057237;28;20507;-81
2022/05/11 15:08:30;;;;;;;4.30;4.00;;;30.20;63.20;;;;;;5060473;28;20920;-82
2022/05/11 15:14:26;;;;;;;5.50;3.97;;;30.60;61.30;;;;;;4999636;28;20430;-80
2022/05/11 15:17:16;;;;;;;4.57;4.15;;;31.00;59.90;;;;;;4991799;28;20216;-82
2022/05/11 15:20:03;;;;;;;4.55;4.15;;;31.00;60.30;;;;;;4964179;29;20312;-82
2022/05/11 15:22:54;;;;;;;4.30;3.92;;;30.70;61.40;;;;;;4960198;28;20199;-81